CU-0030 weather

San German Airport
San German, HolguĂ­n, Cuba

Public forecast

Using degrees Celsius for public forecast. Weather courtesy of forecast.io.

Closest aviation weather report (METAR) to San German Airport

Closest report is Frank Pais International Airport, 16.2 nm (30.1 km) NW. Retrieved 2019/10/23 09:50 UTC (16 minutes ago):

MUHG 230950Z 06007KT 7000 VCFG NSC 24/23 Q1013

Closest aviation forecast (TAF) to San German Airport

Closest forecast is Frank Pais International Airport, 16.2 nm (30.1 km) NW. Retrieved 2019/10/23 06:03 UTC (4 hours ago):

TAF MUHG 230500Z 2306/2406 VRB03KT 9000 SCT020 BECMG 2315/2317 04010KT BECMG 2401/2403 VRB03KT